Benedict, Nebraska
Current Conditions -  °F | °C
As of 4:55 PM on Tuesday 25 Nov 2014 (Local Time) from KJYR Reporting Station
Broken Clouds Broken Clouds  
Wind Chill: 36°   Ceiling: 6000
Heat Index: 41°   Visibility: 10mi
Dew Point: 25°   Wind: 7mph
Humidity: 53%   Direction: 210°SSW
Pressure: 29.91"   Gusts: NA
Location:  41.01°N, 97.61°W
Report Text: KJYR 252255Z AUTO 21006KT 10SM FEW043 BKN060 BKN065 05/M04 A2991 RMK AO2
Loading
Personal Weather Stations






























Interactive Weather Map New forecast layout! Learn more

10-Day Weather Forecast

Advertisements
Track Severe Weather on mobile